WeatherOLA & Area Weather Station Summaries and History

Weather history for Indianola, Kingston, Poulsbo, Bainbridge Island, Silverdale other area weather stations. Select a station for detailed historical weather information of any date and time in five minute intervals. Great for looking up the timing of interesting weather events that are closest to you.

Station Historical Data
 
Daily Summary for May 25, 2017 Units:  English    Metric   Both
« Previous Day
Next Day »
Daily Weekly Monthly Yearly Custom
  Current: High: Low: Average:
Temperature: 48 °F 51.6 °F 48 °F 49.8 °F
Dew Point: 45 °F 46.6 °F 44.4 °F 45.3 °F
Humidity: 89% 91% 79% 85%
Wind Speed: 0mph 1.2mph 0mph 0mph
Wind Gust: 0mph 1.2mph - -
WindCalm - - NE
Pressure: 29.9 in 29.9 in 29.9 in -
Precipitation: 0 in      
Historical Graphs
 
 
Tabular Data for May 25, 2017
Time Temperature Dew Point Pressure Wind Wind Speed Wind Gust Humidity Rainfall Rate (Hourly) solar Conditions
00:01 51.1 °F 46 °F 29.9 in Calm     83% 0 in WeatherDisplay:10.37 W/m2 CLR
00:06 51.1 °F 46 °F 29.9 in Calm     83% 0 in WeatherDisplay:10.37 W/m2 CLR
00:11 51.1 °F 46 °F 29.9 in Calm     83% 0 in WeatherDisplay:10.37 W/m2 CLR
00:16 51.1 °F 45.9 °F 29.9 in Calm     82% 0 in WeatherDisplay:10.37 W/m2 CLR
00:21 51.3 °F 46 °F 29.9 in Calm     82% 0 in WeatherDisplay:10.37 W/m2 CLR
00:26 51.3 °F 46.2 °F 29.9 in Calm     83% 0 in WeatherDisplay:10.37 W/m2 CLR
00:31 51.4 °F 46.4 °F 29.9 in Calm     83% 0 in WeatherDisplay:10.37 W/m2 CLR
00:36 51.4 °F 45.9 °F 29.9 in Calm     81% 0 in WeatherDisplay:10.37 W/m2 CLR
00:41 51.4 °F 45.9 °F 29.9 in Calm     81% 0 in WeatherDisplay:10.37 W/m2 CLR
00:46 51.4 °F 45.9 °F 29.9 in Calm     81% 0 in WeatherDisplay:10.37 W/m2 CLR
00:51 51.4 °F 45.9 °F 29.9 in NE 1.2 mph 1.2 mph 81% 0 in WeatherDisplay:10.37 W/m2 CLR
00:56 51.4 °F 45.9 °F 29.9 in Calm     81% 0 in WeatherDisplay:10.37 W/m2 CLR
01:01 51.4 °F 45.5 °F 29.9 in Calm     80% 0 in WeatherDisplay:10.37 W/m2 CLR
01:06 51.4 °F 45.5 °F 29.9 in Calm     80% 0 in WeatherDisplay:10.37 W/m2 CLR
01:11 51.4 °F 45.5 °F 29.9 in Calm     80% 0 in WeatherDisplay:10.37 W/m2 CLR
01:16 51.4 °F 45.5 °F 29.9 in Calm     80% 0 in WeatherDisplay:10.37 W/m2 CLR
01:21 51.4 °F 45.1 °F 29.9 in Calm     79% 0 in WeatherDisplay:10.37 W/m2 CLR
01:26 51.4 °F 45.1 °F 29.9 in Calm     79% 0 in WeatherDisplay:10.37 W/m2 CLR
01:31 51.6 °F 45.3 °F 29.9 in Calm     79% 0 in WeatherDisplay:10.37 W/m2 CLR
01:36 51.4 °F 45.1 °F 29.9 in Calm     79% 0 in WeatherDisplay:10.37 W/m2 CLR
01:41 51.4 °F 45.5 °F 29.9 in Calm     80% 0 in WeatherDisplay:10.37 W/m2 CLR
01:46 51.4 °F 45.1 °F 29.9 in Calm     79% 0 in WeatherDisplay:10.37 W/m2 CLR
01:51 51.3 °F 45.3 °F 29.9 in Calm     80% 0 in WeatherDisplay:10.37 W/m2 CLR
01:56 51.3 °F 45.7 °F 29.9 in Calm     81% 0 in WeatherDisplay:10.37 W/m2 CLR
02:01 51.1 °F 46.2 °F 29.9 in Calm     84% 0 in WeatherDisplay:10.37 W/m2 CLR
02:06 50.7 °F 46 °F 29.9 in Calm     84% 0 in WeatherDisplay:10.37 W/m2 CLR
02:11 50.4 °F 45.7 °F 29.9 in Calm     84% 0 in WeatherDisplay:10.37 W/m2 CLR
02:16 50 °F 45.7 °F 29.9 in Calm     85% 0 in WeatherDisplay:10.37 W/m2 CLR
02:21 49.6 °F 45.7 °F 29.9 in Calm     86% 0 in WeatherDisplay:10.37 W/m2 CLR
02:22 49.6 °F 45.7 °F 29.9 in Calm     86% 0 in WeatherDisplay:10.37 W/m2 CLR
02:26 49.3 °F 45.1 °F 29.9 in Calm     86% 0 in WeatherDisplay:10.37 W/m2 CLR
02:31 48.9 °F 45.3 °F 29.9 in Calm     87% 0 in WeatherDisplay:10.37 W/m2 CLR
02:36 48.7 °F 45.1 °F 29.9 in Calm     87% 0 in WeatherDisplay:10.37 W/m2 CLR
02:41 48.7 °F 45.3 °F 29.9 in Calm     88% 0 in WeatherDisplay:10.37 W/m2 CLR
02:46 48.7 °F 45.3 °F 29.9 in Calm     88% 0 in WeatherDisplay:10.37 W/m2 CLR
02:51 48.6 °F 45.1 °F 29.9 in Calm     88% 0 in WeatherDisplay:10.37 W/m2 CLR
02:56 48.6 °F 45.5 °F 29.9 in Calm     89% 0 in WeatherDisplay:10.37 W/m2 CLR
02:57 48.6 °F 45.5 °F 29.9 in Calm     89% 0 in WeatherDisplay:10.37 W/m2 CLR
03:02 48.7 °F 45.7 °F 29.9 in Calm     89% 0 in WeatherDisplay:10.37 W/m2 CLR
03:07 48.7 °F 45.7 °F 29.9 in Calm     89% 0 in WeatherDisplay:10.37 W/m2 CLR
03:12 48.7 °F 45.3 °F 29.9 in Calm     88% 0 in WeatherDisplay:10.37 W/m2 CLR
03:17 48.7 °F 45.3 °F 29.9 in Calm     88% 0 in WeatherDisplay:10.37 W/m2 CLR
03:22 48.9 °F 45.1 °F 29.9 in Calm     87% 0 in WeatherDisplay:10.37 W/m2 CLR
03:27 48.9 °F 45.3 °F 29.9 in Calm     87% 0 in WeatherDisplay:10.37 W/m2 CLR
03:32 49.1 °F 45.3 °F 29.9 in Calm     87% 0 in WeatherDisplay:10.37 W/m2 CLR
03:37 49.1 °F 46.6 °F 29.9 in Calm     91% 0 in WeatherDisplay:10.37 W/m2 CLR
03:42 49.1 °F 45.1 °F 29.9 in Calm     86% 0 in WeatherDisplay:10.37 W/m2 CLR
03:47 49.3 °F 45.1 °F 29.9 in Calm     86% 0 in WeatherDisplay:10.37 W/m2 CLR
03:52 49.3 °F 45 °F 29.9 in Calm     85% 0 in WeatherDisplay:10.37 W/m2 CLR
03:57 49.3 °F 45 °F 29.9 in Calm     85% 0 in WeatherDisplay:10.37 W/m2 CLR
04:02 49.3 °F 45 °F 29.9 in Calm     85% 0 in WeatherDisplay:10.37 W/m2 CLR
04:07 49.1 °F 44.8 °F 29.9 in Calm     85% 0 in WeatherDisplay:10.37 W/m2 CLR
04:12 49.1 °F 44.8 °F 29.9 in Calm     85% 0 in WeatherDisplay:10.37 W/m2 CLR
04:17 49.1 °F 44.8 °F 29.9 in Calm     85% 0 in WeatherDisplay:10.37 W/m2 CLR
04:22 49.1 °F 45.7 °F 29.9 in Calm     88% 0 in WeatherDisplay:10.37 W/m2 CLR
04:27 49.1 °F 44.4 °F 29.9 in Calm     84% 0 in WeatherDisplay:10.37 W/m2 CLR
04:32 49.1 °F 44.8 °F 29.9 in Calm     85% 0 in WeatherDisplay:10.37 W/m2 CLR
04:37 49.1 °F 44.4 °F 29.9 in Calm     84% 0 in WeatherDisplay:10.37 W/m2 CLR
04:42 49.1 °F 45.7 °F 29.9 in Calm     88% 0 in WeatherDisplay:10.37 W/m2 CLR
04:47 49.1 °F 44.8 °F 29.9 in Calm     85% 0 in WeatherDisplay:10.37 W/m2 CLR
04:52 49.1 °F 44.8 °F 29.9 in Calm     85% 0 in WeatherDisplay:10.37 W/m2 CLR
04:57 48.9 °F 44.8 °F 29.9 in Calm     85% 0 in WeatherDisplay:10.37 W/m2 CLR
05:02 48.9 °F 45 °F 29.9 in Calm     86% 0 in WeatherDisplay:10.37 W/m2 CLR
05:07 48.7 °F 44.8 °F 29.9 in Calm     86% 0 in WeatherDisplay:10.37 W/m2 CLR
05:12 48.7 °F 44.8 °F 29.9 in Calm     86% 0 in WeatherDisplay:10.37 W/m2 CLR
05:17 48.6 °F 44.8 °F 29.9 in Calm     87% 0 in WeatherDisplay:10.37 W/m2 CLR
05:22 48.4 °F 44.8 °F 29.9 in Calm     87% 0 in WeatherDisplay:10.37 W/m2 CLR
05:27 48.4 °F 45 °F 29.9 in Calm     88% 0 in WeatherDisplay:10.37 W/m2 CLR
05:32 48.2 °F 44.8 °F 29.9 in Calm     88% 0 in WeatherDisplay:10.37 W/m2 CLR
05:37 48 °F 45 °F 29.9 in Calm     89% 0 in WeatherDisplay:10.37 W/m2 CLR
Indianola, WA, USA
Compliments of Weather Underground - 1.75 mb